createdAt,value
2023-03-05T00:01:42.069Z,-72
2023-03-05T00:04:15.640Z,-72
2023-03-05T00:06:44.150Z,-72
2023-03-05T00:09:12.854Z,-72
2023-03-05T00:11:41.382Z,-73
2023-03-05T00:14:09.845Z,-72
2023-03-05T00:16:38.406Z,-72
2023-03-05T00:19:07.075Z,-73
2023-03-05T00:21:39.391Z,-72
2023-03-05T00:24:13.827Z,-73
2023-03-05T00:26:42.686Z,-71
2023-03-05T00:29:21.914Z,-72
2023-03-05T00:31:50.574Z,-72
2023-03-05T00:34:20.385Z,-72
2023-03-05T00:36:52.309Z,-72
2023-03-05T00:39:22.442Z,-72
2023-03-05T00:41:51.261Z,-72
2023-03-05T00:44:19.794Z,-72
2023-03-05T00:46:48.403Z,-72
2023-03-05T00:49:17.050Z,-72
2023-03-05T00:51:45.644Z,-72
2023-03-05T00:54:14.072Z,-72
2023-03-05T00:56:42.643Z,-72
2023-03-05T00:59:11.169Z,-72
2023-03-05T01:01:39.638Z,-72
2023-03-05T01:04:08.026Z,-73
2023-03-05T01:06:36.491Z,-72
2023-03-05T01:09:05.300Z,-72
2023-03-05T01:11:33.784Z,-72
2023-03-05T01:14:02.352Z,-71
2023-03-05T01:16:30.931Z,-72
2023-03-05T01:18:59.383Z,-72
2023-03-05T01:21:27.881Z,-72
2023-03-05T01:23:56.513Z,-72
2023-03-05T01:26:24.980Z,-71
2023-03-05T01:28:53.710Z,-71
2023-03-05T01:31:22.413Z,-72
2023-03-05T01:33:54.384Z,-72
2023-03-05T01:36:25.241Z,-73
2023-03-05T01:38:54.129Z,-70
2023-03-05T01:41:22.870Z,-71
2023-03-05T01:43:52.960Z,-70
2023-03-05T01:46:30.956Z,-70
2023-03-05T01:49:20.976Z,-73
2023-03-05T01:52:03.014Z,-72
2023-03-05T01:54:37.710Z,-72
2023-03-05T01:57:34.421Z,-72
2023-03-05T02:00:13.310Z,-71
2023-03-05T02:02:42.813Z,-71
2023-03-05T02:05:16.130Z,-71
2023-03-05T02:07:45.271Z,-71
2023-03-05T02:10:32.496Z,-70
2023-03-05T02:13:05.223Z,-71
2023-03-05T02:15:35.057Z,-72
2023-03-05T02:18:03.933Z,-72
2023-03-05T02:20:51.996Z,-72
2023-03-05T02:23:22.774Z,-71
2023-03-05T02:25:51.370Z,-72
2023-03-05T02:28:44.808Z,-73
2023-03-05T02:31:24.102Z,-72
2023-03-05T02:33:54.062Z,-71
2023-03-05T02:36:23.016Z,-71
2023-03-05T02:38:52.972Z,-72
2023-03-05T02:41:22.046Z,-72
2023-03-05T02:43:50.688Z,-72
2023-03-05T02:46:19.678Z,-73
2023-03-05T02:48:48.149Z,-73
2023-03-05T02:51:16.557Z,-72
2023-03-05T02:53:45.008Z,-72
2023-03-05T02:56:13.612Z,-72
2023-03-05T02:58:42.254Z,-73
2023-03-05T03:01:11.566Z,-73
2023-03-05T03:03:40.862Z,-73
2023-03-05T03:06:09.525Z,-72
2023-03-05T03:08:38.179Z,-72
2023-03-05T03:11:12.569Z,-72
2023-03-05T03:13:41.829Z,-72
2023-03-05T03:16:14.938Z,-72
2023-03-05T03:18:44.393Z,-73
2023-03-05T03:21:23.235Z,-72
2023-03-05T03:23:52.065Z,-72
2023-03-05T03:26:21.033Z,-71
2023-03-05T03:28:49.456Z,-72
2023-03-05T03:31:17.947Z,-72
2023-03-05T03:33:46.586Z,-72
2023-03-05T03:36:15.076Z,-71
2023-03-05T03:38:43.683Z,-71
2023-03-05T03:41:12.142Z,-72
2023-03-05T03:43:40.660Z,-71
2023-03-05T03:46:09.553Z,-72
2023-03-05T03:48:38.224Z,-73
2023-03-05T03:51:08.649Z,-72
2023-03-05T03:53:37.210Z,-72
2023-03-05T03:56:06.174Z,-72
2023-03-05T03:58:34.614Z,-71
2023-03-05T04:01:03.231Z,-72
2023-03-05T04:03:31.731Z,-72
2023-03-05T04:06:00.819Z,-70
2023-03-05T04:08:29.311Z,-73
2023-03-05T04:10:57.822Z,-72
2023-03-05T04:13:26.324Z,-73
2023-03-05T04:15:55.762Z,-72
2023-03-05T04:18:24.395Z,-73
2023-03-05T04:20:53.068Z,-72
2023-03-05T04:23:21.524Z,-72
2023-03-05T04:25:50.170Z,-72
2023-03-05T04:28:18.991Z,-72
2023-03-05T04:30:47.435Z,-72
2023-03-05T04:33:15.989Z,-72
2023-03-05T04:35:44.605Z,-72
2023-03-05T04:38:13.754Z,-72
2023-03-05T04:40:42.401Z,-72
2023-03-05T04:43:10.983Z,-72
2023-03-05T04:45:42.357Z,-72
2023-03-05T04:48:12.274Z,-73
2023-03-05T04:50:41.085Z,-72
2023-03-05T04:53:09.517Z,-72
2023-03-05T04:55:37.973Z,-73
2023-03-05T04:58:07.282Z,-73
2023-03-05T05:00:35.704Z,-72
2023-03-05T05:03:04.243Z,-73
2023-03-05T05:05:32.740Z,-73
2023-03-05T05:08:01.236Z,-73
2023-03-05T05:10:29.725Z,-73
2023-03-05T05:12:58.464Z,-74
2023-03-05T05:15:26.976Z,-73
2023-03-05T05:17:55.465Z,-73
2023-03-05T05:20:24.104Z,-74
2023-03-05T05:22:52.587Z,-74
2023-03-05T05:25:21.130Z,-73
2023-03-05T05:27:49.684Z,-74
2023-03-05T05:30:18.368Z,-74
2023-03-05T05:32:46.868Z,-73
2023-03-05T05:35:15.419Z,-73
2023-03-05T05:37:43.904Z,-74
2023-03-05T05:40:12.976Z,-74
2023-03-05T05:42:41.536Z,-73
2023-03-05T05:45:11.335Z,-74
2023-03-05T05:47:39.840Z,-74
2023-03-05T05:50:08.901Z,-74
2023-03-05T05:52:37.375Z,-74
2023-03-05T05:55:06.338Z,-74
2023-03-05T05:57:35.400Z,-74
2023-03-05T06:00:05.374Z,-74
2023-03-05T06:02:33.981Z,-74
2023-03-05T06:05:02.452Z,-74
2023-03-05T06:07:31.692Z,-75
2023-03-05T06:10:00.363Z,-74
2023-03-05T06:12:28.891Z,-74
2023-03-05T06:14:57.940Z,-74
2023-03-05T06:17:30.800Z,-74
2023-03-05T06:20:01.129Z,-74
2023-03-05T06:22:29.637Z,-74
2023-03-05T06:24:58.183Z,-74
2023-03-05T06:27:26.866Z,-74
2023-03-05T06:29:56.730Z,-74
2023-03-05T06:32:25.508Z,-74
2023-03-05T06:34:54.367Z,-74
2023-03-05T06:37:22.852Z,-75
2023-03-05T06:39:51.334Z,-74
2023-03-05T06:42:19.789Z,-74
2023-03-05T06:44:48.528Z,-75
2023-03-05T06:47:17.208Z,-74
2023-03-05T06:49:45.771Z,-74
2023-03-05T06:52:14.189Z,-74
2023-03-05T06:54:42.720Z,-74
2023-03-05T06:57:12.068Z,-74
2023-03-05T06:59:40.541Z,-74
2023-03-05T07:02:13.830Z,-74
2023-03-05T07:04:42.429Z,-75
2023-03-05T07:07:10.934Z,-74
2023-03-05T07:09:42.970Z,-74
2023-03-05T07:12:12.676Z,-75
2023-03-05T07:14:41.473Z,-74
2023-03-05T07:17:10.330Z,-74
2023-03-05T07:19:39.849Z,-74
2023-03-05T07:22:09.237Z,-74
2023-03-05T07:24:38.363Z,-74
2023-03-05T07:27:06.888Z,-74
2023-03-05T07:29:35.409Z,-74
2023-03-05T07:32:04.271Z,-74
2023-03-05T07:34:32.910Z,-73
2023-03-05T07:37:01.571Z,-74
2023-03-05T07:39:30.051Z,-74
2023-03-05T07:41:58.508Z,-74
2023-03-05T07:44:26.897Z,-74
2023-03-05T07:46:55.425Z,-74
2023-03-05T07:49:23.940Z,-74
2023-03-05T07:51:52.546Z,-75
2023-03-05T07:54:20.960Z,-75
2023-03-05T07:56:49.606Z,-76
2023-03-05T07:59:18.190Z,-75
2023-03-05T08:01:47.307Z,-75
2023-03-05T08:04:15.896Z,-75
2023-03-05T08:06:44.520Z,-73
2023-03-05T08:09:12.960Z,-74
2023-03-05T08:11:41.833Z,-74
2023-03-05T08:14:10.593Z,-70
2023-03-05T08:16:41.104Z,-72
2023-03-05T08:19:10.772Z,-74
2023-03-05T08:21:40.169Z,-73
2023-03-05T08:24:10.120Z,-74
2023-03-05T08:26:39.635Z,-75
2023-03-05T08:29:09.890Z,-73
2023-03-05T08:31:38.947Z,-75
2023-03-05T08:34:07.743Z,-75
2023-03-05T08:36:36.529Z,-76
2023-03-05T08:39:06.828Z,-75
2023-03-05T08:41:35.320Z,-76
2023-03-05T08:44:04.354Z,-76
2023-03-05T08:46:33.715Z,-75
2023-03-05T08:49:02.991Z,-75
2023-03-05T08:51:36.049Z,-76
2023-03-05T08:54:07.399Z,-77
2023-03-05T08:56:37.804Z,-77
2023-03-05T08:59:07.855Z,-76
2023-03-05T09:01:37.821Z,-78
2023-03-05T09:04:06.960Z,-75
2023-03-05T09:06:39.478Z,-75
2023-03-05T09:09:09.881Z,-75
2023-03-05T09:11:39.068Z,-74
2023-03-05T09:14:09.591Z,-73
2023-03-05T09:16:40.653Z,-75
2023-03-05T09:19:10.782Z,-75
2023-03-05T09:21:39.895Z,-76
2023-03-05T09:24:08.910Z,-75
2023-03-05T09:26:37.661Z,-73
2023-03-05T09:29:07.650Z,-76
2023-03-05T09:31:38.558Z,-74
2023-03-05T09:34:09.483Z,-76
2023-03-05T09:36:38.199Z,-75
2023-03-05T09:39:07.850Z,-75
2023-03-05T09:42:09.922Z,-76
2023-03-05T09:45:15.537Z,-74
2023-03-05T09:48:20.002Z,-76
2023-03-05T09:50:52.814Z,-73
2023-03-05T09:53:44.577Z,-76
2023-03-05T09:56:18.468Z,-75
2023-03-05T09:59:18.820Z,-74
2023-03-05T10:01:48.034Z,-74
2023-03-05T10:04:43.991Z,-74
2023-03-05T10:07:30.290Z,-75
2023-03-05T10:10:03.025Z,-75
2023-03-05T10:12:43.833Z,-73
2023-03-05T10:15:23.320Z,-73
2023-03-05T10:18:26.568Z,-73
2023-03-05T10:21:30.769Z,-74
2023-03-05T10:24:08.289Z,-74
2023-03-05T10:27:10.491Z,-75
2023-03-05T10:30:06.186Z,-74
2023-03-05T10:32:45.747Z,-74
2023-03-05T10:35:57.101Z,-74
2023-03-05T10:38:28.715Z,-74
2023-03-05T10:40:57.974Z,-74
2023-03-05T10:44:21.702Z,-74
2023-03-05T10:46:51.579Z,-75
2023-03-05T10:49:37.651Z,-74
2023-03-05T10:52:30.597Z,-75
2023-03-05T10:54:59.154Z,-75
2023-03-05T10:57:29.924Z,-74
2023-03-05T11:00:06.892Z,-74
2023-03-05T11:02:36.025Z,-75
2023-03-05T11:05:05.319Z,-76
2023-03-05T11:07:36.900Z,-75
2023-03-05T11:10:15.549Z,-71
2023-03-05T11:12:45.095Z,-72
2023-03-05T11:15:16.520Z,-72
2023-03-05T11:18:05.851Z,-72
2023-03-05T11:20:38.134Z,-71
2023-03-05T11:23:24.785Z,-72
2023-03-05T11:25:53.257Z,-71
2023-03-05T11:28:33.545Z,-71
2023-03-05T11:31:17.480Z,-71
2023-03-05T11:34:04.221Z,-71
2023-03-05T11:36:58.619Z,-72
2023-03-05T11:39:30.386Z,-72
2023-03-05T11:42:13.286Z,-71
2023-03-05T11:44:55.819Z,-71
2023-03-05T11:47:44.470Z,-71
2023-03-05T11:50:27.736Z,-71
2023-03-05T11:53:09.542Z,-71
2023-03-05T11:56:07.349Z,-71
2023-03-05T11:58:56.415Z,-71
2023-03-05T12:01:30.291Z,-74
2023-03-05T12:04:00.084Z,-72
2023-03-05T12:06:55.976Z,-72
2023-03-05T12:09:45.708Z,-72
2023-03-05T12:12:23.169Z,-72
2023-03-05T12:15:04.762Z,-72
2023-03-05T12:17:58.368Z,-72
2023-03-05T12:20:46.704Z,-71
2023-03-05T12:23:22.168Z,-72
2023-03-05T12:25:52.139Z,-72
2023-03-05T12:28:35.427Z,-72
2023-03-05T12:31:27.621Z,-71
2023-03-05T12:33:56.224Z,-72
2023-03-05T12:36:24.726Z,-71
2023-03-05T12:38:57.637Z,-71
2023-03-05T12:41:28.073Z,-71
2023-03-05T12:44:09.030Z,-71
2023-03-05T12:46:46.085Z,-70
2023-03-05T12:49:20.274Z,-71
2023-03-05T12:51:56.990Z,-70
2023-03-05T12:54:39.704Z,-71
2023-03-05T12:57:29.525Z,-71
2023-03-05T13:00:21.753Z,-71
2023-03-05T13:02:58.701Z,-71
2023-03-05T13:05:36.178Z,-71
2023-03-05T13:08:37.743Z,-73
2023-03-05T13:11:17.903Z,-72
2023-03-05T13:13:49.257Z,-72
2023-03-05T13:16:29.218Z,-72
2023-03-05T13:19:01.395Z,-73
2023-03-05T13:21:33.396Z,-73
2023-03-05T13:24:04.601Z,-71
2023-03-05T13:26:41.643Z,-71
2023-03-05T13:29:15.721Z,-72
2023-03-05T13:31:52.022Z,-72
2023-03-05T13:34:37.445Z,-72
2023-03-05T13:37:22.241Z,-71
2023-03-05T13:40:00.382Z,-72
2023-03-05T13:42:36.251Z,-72
2023-03-05T13:45:27.034Z,-73
2023-03-05T13:47:55.885Z,-72
2023-03-05T13:50:33.373Z,-73
2023-03-05T13:53:24.261Z,-73
2023-03-05T13:55:57.613Z,-72
2023-03-05T13:58:53.828Z,-72
2023-03-05T14:01:49.490Z,-72
2023-03-05T14:04:23.769Z,-72
2023-03-05T14:07:03.470Z,-73
2023-03-05T14:09:47.046Z,-74
2023-03-05T14:12:43.579Z,-73
2023-03-05T14:15:26.780Z,-73
2023-03-05T14:18:17.370Z,-74
2023-03-05T14:21:11.351Z,-73
2023-03-05T14:23:53.050Z,-73
2023-03-05T14:26:21.629Z,-74
2023-03-05T14:29:12.650Z,-73
2023-03-05T14:32:05.048Z,-73
2023-03-05T14:34:44.177Z,-73
2023-03-05T14:37:49.082Z,-73
2023-03-05T14:40:22.150Z,-74
2023-03-05T14:43:04.076Z,-72
2023-03-05T14:45:44.313Z,-72
2023-03-05T14:48:15.800Z,-74
2023-03-05T14:50:56.502Z,-75
2023-03-05T14:53:34.586Z,-72
2023-03-05T14:56:03.334Z,-72
2023-03-05T14:58:35.422Z,-72
2023-03-05T15:01:04.012Z,-74
2023-03-05T15:03:33.091Z,-74
2023-03-05T15:06:02.104Z,-73
2023-03-05T15:08:33.148Z,-74
2023-03-05T15:11:03.581Z,-72
2023-03-05T15:13:32.463Z,-74
2023-03-05T15:16:01.245Z,-73
2023-03-05T15:18:29.958Z,-73
2023-03-05T15:20:58.519Z,-73
2023-03-05T15:23:29.771Z,-74
2023-03-05T15:26:00.669Z,-73
2023-03-05T15:28:29.188Z,-74
2023-03-05T15:30:59.731Z,-73
2023-03-05T15:33:29.312Z,-72
2023-03-05T15:35:58.103Z,-72
2023-03-05T15:38:26.741Z,-72
2023-03-05T15:40:55.250Z,-72
2023-03-05T15:43:23.443Z,-72
2023-03-05T15:45:51.985Z,-72
2023-03-05T15:48:20.378Z,-72
2023-03-05T15:50:48.998Z,-71
2023-03-05T15:53:18.065Z,-73
2023-03-05T15:55:47.040Z,-74
2023-03-05T15:58:17.773Z,-73
2023-03-05T16:00:47.497Z,-73
2023-03-05T16:03:16.419Z,-73
2023-03-05T16:05:45.109Z,-74
2023-03-05T16:08:13.697Z,-73
2023-03-05T16:10:42.347Z,-73
2023-03-05T16:13:15.770Z,-73
2023-03-05T16:15:44.686Z,-73
2023-03-05T16:18:16.565Z,-73
2023-03-05T16:20:45.277Z,-76
2023-03-05T16:23:13.925Z,-75
2023-03-05T16:25:42.351Z,-75
2023-03-05T16:28:11.277Z,-76
2023-03-05T16:30:39.991Z,-74
2023-03-05T16:33:08.551Z,-74
2023-03-05T16:35:37.422Z,-73
2023-03-05T16:38:07.056Z,-73
2023-03-05T16:41:06.123Z,-73
2023-03-05T16:43:27.805Z,-73
2023-03-05T16:45:56.425Z,-73
2023-03-05T16:48:24.923Z,-73
2023-03-05T16:50:53.367Z,-74
2023-03-05T16:53:21.935Z,-73
2023-03-05T16:55:50.442Z,-73
2023-03-05T16:58:18.983Z,-73
2023-03-05T17:00:49.010Z,-73
2023-03-05T17:03:17.659Z,-73
2023-03-05T17:05:46.507Z,-72
2023-03-05T17:08:14.942Z,-73
2023-03-05T17:10:44.633Z,-70
2023-03-05T17:13:13.347Z,-71
2023-03-05T17:18:12.441Z,-71
2023-03-05T17:20:41.067Z,-71
2023-03-05T17:23:09.744Z,-70
2023-03-05T17:25:38.865Z,-71
2023-03-05T17:28:07.844Z,-70
2023-03-05T17:30:40.729Z,-71
2023-03-05T17:33:09.466Z,-71
2023-03-05T17:35:38.284Z,-68
2023-03-05T17:38:10.884Z,-70
2023-03-05T17:40:41.680Z,-71
2023-03-05T17:43:10.342Z,-71
2023-03-05T17:45:39.276Z,-71
2023-03-05T17:48:08.456Z,-71
2023-03-05T17:50:37.542Z,-69
2023-03-05T17:53:06.996Z,-72
2023-03-05T17:55:35.513Z,-69
2023-03-05T17:58:04.062Z,-68
2023-03-05T18:00:33.097Z,-70
2023-03-05T18:03:02.155Z,-71
2023-03-05T18:05:31.116Z,-70
2023-03-05T18:08:03.426Z,-70
2023-03-05T18:10:33.227Z,-70
2023-03-05T18:13:01.715Z,-71
2023-03-05T18:15:30.841Z,-71
2023-03-05T18:17:59.679Z,-70
2023-03-05T18:20:39.013Z,-71
2023-03-05T18:23:10.180Z,-70
2023-03-05T18:25:38.715Z,-72
2023-03-05T18:28:14.828Z,-70
2023-03-05T18:30:44.366Z,-70
2023-03-05T18:33:21.630Z,-70
2023-03-05T18:35:52.307Z,-71
2023-03-05T18:38:27.351Z,-71
2023-03-05T18:41:03.032Z,-71
2023-03-05T18:43:31.770Z,-71
2023-03-05T18:46:00.386Z,-71
2023-03-05T18:48:29.000Z,-70
2023-03-05T18:50:57.510Z,-70
2023-03-05T18:53:26.212Z,-71
2023-03-05T18:55:55.054Z,-70
2023-03-05T18:58:25.898Z,-70
2023-03-05T19:00:54.716Z,-70
2023-03-05T19:03:23.315Z,-70
2023-03-05T19:05:52.184Z,-70
2023-03-05T19:08:21.320Z,-70
2023-03-05T19:10:49.826Z,-70
2023-03-05T19:13:52.266Z,-70
2023-03-05T19:16:28.078Z,-70
2023-03-05T19:19:05.158Z,-70
2023-03-05T19:21:33.793Z,-71
2023-03-05T19:24:02.552Z,-70
2023-03-05T19:26:31.132Z,-70
2023-03-05T19:28:59.637Z,-70
2023-03-05T19:31:28.159Z,-68
2023-03-05T19:34:05.902Z,-69
2023-03-05T19:36:35.637Z,-70
2023-03-05T19:39:10.032Z,-69
2023-03-05T19:41:39.082Z,-70
2023-03-05T19:44:08.151Z,-69
2023-03-05T19:46:36.926Z,-70
2023-03-05T19:49:05.782Z,-68
2023-03-05T19:51:34.190Z,-71
2023-03-05T19:54:05.613Z,-70
2023-03-05T19:56:33.972Z,-70
2023-03-05T19:59:11.299Z,-69
2023-03-05T20:01:44.014Z,-68
2023-03-05T20:04:16.638Z,-70
2023-03-05T20:06:45.378Z,-70
2023-03-05T20:09:14.422Z,-70
2023-03-05T20:11:43.179Z,-69
2023-03-05T20:14:13.066Z,-71
2023-03-05T20:16:43.087Z,-70
2023-03-05T20:19:18.505Z,-70
2023-03-05T20:21:47.416Z,-70
2023-03-05T20:24:19.496Z,-70
2023-03-05T20:26:48.822Z,-70
2023-03-05T20:29:18.703Z,-70
2023-03-05T20:31:47.777Z,-69
2023-03-05T20:34:19.094Z,-69
2023-03-05T20:36:47.887Z,-68
2023-03-05T20:39:16.513Z,-70
2023-03-05T20:41:45.122Z,-70
2023-03-05T20:44:14.314Z,-71
2023-03-05T20:46:54.254Z,-70
2023-03-05T20:49:23.079Z,-70
2023-03-05T20:51:51.674Z,-69
2023-03-05T20:54:20.260Z,-69
2023-03-05T20:56:48.977Z,-70
2023-03-05T20:59:17.693Z,-71
2023-03-05T21:01:46.560Z,-70
2023-03-05T21:04:15.097Z,-69
2023-03-05T21:06:43.532Z,-68
2023-03-05T21:09:12.126Z,-69
2023-03-05T21:11:40.605Z,-69
2023-03-05T21:14:09.076Z,-69
2023-03-05T21:16:37.608Z,-71
2023-03-05T21:19:06.112Z,-71
2023-03-05T21:21:52.088Z,-71
2023-03-05T21:24:24.093Z,-70
2023-03-05T21:26:52.543Z,-70
2023-03-05T21:29:21.057Z,-69
2023-03-05T21:31:49.583Z,-70
2023-03-05T21:34:19.027Z,-70
2023-03-05T21:36:47.532Z,-70
2023-03-05T21:39:16.200Z,-70
2023-03-05T21:41:46.534Z,-70
2023-03-05T21:44:17.692Z,-70
2023-03-05T21:46:46.341Z,-69
2023-03-05T21:49:16.715Z,-70
2023-03-05T21:51:58.965Z,-70
2023-03-05T21:54:29.045Z,-70
2023-03-05T21:56:57.547Z,-70
2023-03-05T21:59:26.153Z,-69
2023-03-05T22:01:54.721Z,-69
2023-03-05T22:04:23.201Z,-70
2023-03-05T22:06:51.853Z,-70
2023-03-05T22:09:20.343Z,-70
2023-03-05T22:11:48.761Z,-70
2023-03-05T22:14:18.113Z,-70
2023-03-05T22:16:46.742Z,-69
2023-03-05T22:19:15.441Z,-70
2023-03-05T22:21:44.084Z,-70
2023-03-05T22:24:12.800Z,-70
2023-03-05T22:26:42.757Z,-69
2023-03-05T22:29:13.012Z,-70
2023-03-05T22:31:41.720Z,-70
2023-03-05T22:34:10.391Z,-70
2023-03-05T22:36:38.869Z,-70
2023-03-05T22:39:07.311Z,-69
2023-03-05T22:41:35.788Z,-70
2023-03-05T22:44:04.341Z,-71
2023-03-05T22:46:32.841Z,-71
2023-03-05T22:49:01.293Z,-70
2023-03-05T22:51:29.841Z,-70
2023-03-05T22:53:58.337Z,-71
2023-03-05T22:56:26.817Z,-70
2023-03-05T22:58:55.617Z,-70
2023-03-05T23:01:27.749Z,-69
2023-03-05T23:04:05.516Z,-70
2023-03-05T23:06:34.019Z,-70
2023-03-05T23:09:02.633Z,-70
2023-03-05T23:11:31.288Z,-72
2023-03-05T23:13:59.754Z,-72
2023-03-05T23:16:28.422Z,-72
2023-03-05T23:18:56.967Z,-73
2023-03-05T23:21:25.451Z,-72
2023-03-05T23:23:56.593Z,-72
2023-03-05T23:26:25.794Z,-72
2023-03-05T23:28:54.326Z,-72
2023-03-05T23:31:22.795Z,-72
2023-03-05T23:33:51.340Z,-73
2023-03-05T23:36:20.262Z,-72
2023-03-05T23:38:48.903Z,-73
2023-03-05T23:41:17.507Z,-73
2023-03-05T23:43:45.998Z,-73
2023-03-05T23:46:14.592Z,-73
2023-03-05T23:48:43.127Z,-73
2023-03-05T23:51:12.106Z,-73
2023-03-05T23:53:40.587Z,-72
2023-03-05T23:56:13.345Z,-73
2023-03-05T23:58:42.692Z,-73
